Latest Weather Observations for Cessnock Airport

IDN60801

Issued at 2:12 pm EDT Monday 27 January 2020 (issued every 10 minutes, with the page automatically refreshed every 10 minutes)

About weather observations | Map of weather stations | Latest weather observations for NSW | Other Formats
Station Details ID: 061260 Name: CESSNOCK AIRPORT AWS Lat: -32.79 Lon: 151.34 Height: 61.0 m
Data from the previous 72 hours. | See also: Recent months at Cessnock Airport
Date/Time
EDT
Temp
°C
App
Temp
°C
Dew
Point
°C
Rel
Hum
%
Delta-T
°C
Wind Press
QNH
hPa
Press
MSL
hPa
Rain since
9am
mm
Dir  Spd
km/h
Gust
km/h
Spd
kts
Gust
kts
27/02:00pm 29.7 32.6 21.1 60 5.8 SE 7 11 4 6 1012.0 1011.7 0.0
27/01:30pm 29.2 32.8 21.2 62 5.3 ESE 4 9 2 5 1012.5 1012.2 0.0
27/01:00pm 27.9 30.8 21.0 66 4.6 E 7 11 4 6 1012.9 1012.6 0.0
27/12:30pm 27.8 30.7 21.1 67 4.5 SSE 7 11 4 6 1013.2 1012.9 0.0
27/12:00pm 27.2 30.4 21.2 69 4.0 E 6 11 3 6 1013.6 1013.3 0.0
27/11:30am 26.7 30.1 21.0 71 3.8 SSE 4 9 2 5 1013.7 1013.4 0.0
27/11:00am 26.2 29.0 20.8 72 3.6 S 7 11 4 6 1013.9 1013.6 0.0
27/10:30am 26.1 28.8 21.3 75 3.2 SSW 9 13 5 7 1013.9 1013.6 0.0
27/10:00am 25.8 28.4 21.2 76 3.0 SSW 9 15 5 8 1013.8 1013.5 0.0
27/09:30am 25.5 28.2 21.4 78 2.7 SSW 9 13 5 7 1013.8 1013.5 0.0
27/09:00am 25.1 28.1 21.2 79 2.6 SW 7 11 4 6 1013.8 1013.5 10.4
27/08:30am 24.8 27.5 21.3 81 2.3 SW 9 13 5 7 1013.7 1013.4 10.4
27/08:00am 24.6 27.0 21.5 83 2.1 SSW 11 15 6 8 1013.4 1013.1 10.4
27/07:30am 23.3 27.4 21.6 90 1.1 NE 2 6 1 3 1013.2 1012.9 10.4
27/07:00am 22.8 27.2 21.3 91 1.0 CALM 0 0 0 0 1013.0 1012.7 10.4
27/06:30am 22.4 26.4 20.5 89 1.2 CALM 0 6 0 3 1012.5 1012.2 10.4
27/06:00am 22.1 24.5 20.0 88 1.4 WSW 7 7 4 4 1012.3 1012.0 10.4
27/05:30am 22.3 25.1 20.4 89 1.2 WSW 6 7 3 4 1012.1 1011.8 10.4
27/05:00am 22.3 24.5 20.4 89 1.2 SW 9 11 5 6 1011.9 1011.6 10.4
27/04:30am 22.1 24.5 19.6 86 1.6 SW 6 9 3 5 1011.7 1011.4 10.4
27/04:00am 21.7 24.3 20.0 90 1.1 S 6 11 3 6 1011.5 1011.2 10.4
27/03:30am 21.4 23.9 19.9 91 1.0 WSW 6 9 3 5 1011.6 1011.3 10.4
27/03:00am 21.7 24.1 20.0 90 1.1 WSW 7 9 4 5 1011.7 1011.4 10.4
27/02:30am 22.0 24.2 20.5 91 1.0 SSW 9 13 5 7 1011.8 1011.5 10.4
27/02:00am 21.9 24.7 20.4 91 1.0 WSW 6 9 3 5 1011.3 1011.0 10.4
27/01:30am 22.4 26.5 20.7 90 1.1 CALM 0 6 0 3 1011.2 1010.9 10.4
27/01:00am 22.7 25.6 21.0 90 1.1 ESE 7 9 4 5 1011.0 1010.7 10.4
27/12:30am 22.8 25.5 20.7 88 1.4 SSE 7 11 4 6 1011.0 1010.7 10.4
27/12:00am 23.7 26.9 20.4 82 2.1 N 4 9 2 5 1011.0 1010.7 10.4
 
Date/Time
EDT
Temp
°C
App
Temp
°C
Dew
Point
°C
Rel
Hum
%
Delta-T
°C
Wind Press
QNH
hPa
Press
MSL
hPa
Rain since
9am
mm
Dir  Spd
km/h
Gust
km/h
Spd
kts
Gust
kts
26/11:30pm 23.6 26.1 20.3 82 2.1 NNW 7 11 4 6 1010.8 1010.5 10.4
26/11:00pm 23.3 25.1 21.2 88 1.4 N 13 19 7 10 1011.2 1010.9 10.4
26/10:30pm 23.5 26.6 21.0 86 1.6 WSW 6 9 3 5 1011.5 1011.2 10.4
26/10:00pm 23.5 25.1 21.4 88 1.4 ESE 15 20 8 11 1011.6 1011.3 10.4
26/09:30pm 23.2 25.9 21.3 89 1.3 WSW 9 13 5 7 1011.4 1011.1 10.4
26/09:00pm 24.9 27.7 19.7 73 3.4 ESE 4 9 2 5 1011.4 1011.1 8.8
26/08:30pm 24.4 23.9 20.7 80 2.4 SSW 24 35 13 19 1011.3 1011.0 8.8
26/08:00pm 24.1 27.7 22.0 88 1.4 WSW 6 7 3 4 1010.1 1009.8 8.8
26/07:30pm 24.0 28.2 21.7 87 1.5 SW 2 7 1 4 1010.2 1009.9 8.8
26/07:00pm 23.8 27.0 21.3 86 1.7 SSW 6 9 3 5 1009.7 1009.4 8.8
26/06:30pm 23.7 25.6 21.4 87 1.5 NW 13 20 7 11 1010.3 1010.0 8.6
26/06:00pm 24.0 26.4 21.5 86 1.7 N 11 19 6 10 1010.2 1009.9 8.4
26/05:35pm 25.9 27.4 22.0 79 2.6 SE 17 41 9 22 1010.5 1010.2 7.0
26/05:30pm 24.3 26.9 22.0 87 1.5 S 11 24 6 13 1010.3 1010.0 6.0
26/05:00pm 24.3 24.7 21.0 82 2.2 SSE 20 32 11 17 1008.7 1008.4 1.0
26/04:50pm 23.9 22.1 20.4 81 2.3 SSE 30 48 16 26 1009.1 1008.8 0.2
26/04:47pm 23.9 21.2 19.6 77 2.8 SSE 33 48 18 26 1009.2 1008.9 0.0
26/04:30pm 29.0 25.8 17.2 49 7.4 S 30 50 16 27 1008.7 1008.4 0.0
26/04:20pm 30.1 27.0 18.8 50 7.3 S 33 52 18 28 1008.6 1008.3 0.0
26/04:00pm 32.7 32.5 18.5 43 9.3 SW 17 39 9 21 1007.7 1007.4 0.0
26/03:30pm 37.0 36.0 17.6 32 12.6 N 19 28 10 15 1007.6 1007.3 0.0
26/03:00pm 36.3 35.6 17.4 32 12.3 NW 17 33 9 18 1008.2 1007.9 0.0
26/02:30pm 36.9 36.1 18.0 33 12.4 NNW 19 28 10 15 1008.7 1008.4 0.0
26/02:00pm 36.5 35.6 18.1 33 12.1 N 20 28 11 15 1009.4 1009.1 0.0
26/01:30pm 35.2 34.4 17.9 36 11.2 NNW 19 28 10 15 1010.0 1009.7 0.0
26/01:00pm 35.8 36.0 19.3 38 11.0 NNW 17 32 9 17 1010.4 1010.1 0.0
26/12:30pm 34.9 34.3 18.9 39 10.5 NNW 20 32 11 17 1010.9 1010.6 0.0
26/12:00pm 34.3 33.7 18.8 40 10.2 NNW 20 50 11 27 1011.1 1010.8 0.0
26/11:30am 34.0 34.6 18.5 40 10.1 NW 13 28 7 15 1011.3 1011.0 0.0
26/11:00am 33.4 34.4 19.5 44 9.2 NW 13 30 7 16 1011.5 1011.2 0.0
26/10:30am 31.4 32.1 19.7 49 7.7 NNW 15 26 8 14 1011.9 1011.6 0.0
26/10:00am 30.4 31.7 20.9 57 6.3 NNW 15 20 8 11 1012.1 1011.8 0.0
26/09:30am 29.5 31.0 20.6 58 5.9 NNW 13 24 7 13 1012.3 1012.0 0.0
26/09:00am 28.5 31.8 21.8 67 4.5 N 7 11 4 6 1012.5 1012.2 0.0
26/08:30am 26.6 30.1 22.2 77 3.0 N 7 13 4 7 1012.6 1012.3 0.0
26/08:00am 25.7 29.6 22.6 83 2.1 N 6 9 3 5 1012.4 1012.1 0.0
26/07:30am 24.4 28.2 22.7 90 1.1 NNE 7 9 4 5 1012.1 1011.8 0.0
26/07:00am 23.4 27.2 22.4 94 0.7 N 6 9 3 5 1011.7 1011.4 0.0
26/06:30am 22.6 26.6 21.4 93 0.8 WSW 2 7 1 4 1011.2 1010.9 0.0
26/06:00am 22.7 27.2 21.5 93 0.8 CALM 0 0 0 0 1010.7 1010.4 0.0
26/05:30am 22.7 25.9 21.3 92 0.9 WNW 6 7 3 4 1010.4 1010.1 0.0
26/05:00am 23.5 27.1 22.1 92 0.9 W 6 7 3 4 1010.1 1009.8 0.0
26/04:30am 23.6 28.1 22.2 92 0.9 N 2 9 1 5 1009.8 1009.5 0.0
26/04:00am 23.7 27.3 22.3 92 0.9 E 7 9 4 5 1009.7 1009.4 0.0
26/03:30am 23.9 27.6 22.5 92 0.9 S 7 11 4 6 1009.5 1009.2 0.0
26/03:00am 23.8 27.5 22.6 93 0.8 SW 7 11 4 6 1009.8 1009.5 0.0
26/02:30am 24.0 27.9 22.6 92 0.9 SSW 6 9 3 5 1010.4 1010.1 0.0
26/02:00am 24.1 28.9 22.2 89 1.3 CALM 0 0 0 0 1010.7 1010.4 0.0
26/01:30am 24.5 28.3 22.4 88 1.4 S 6 7 3 4 1011.0 1010.7 0.0
26/01:00am 24.8 28.5 22.3 86 1.7 ESE 6 9 3 5 1011.3 1011.0 0.0
26/12:30am 25.0 28.2 22.3 85 1.8 E 9 11 5 6 1011.3 1011.0 0.0
26/12:00am 24.9 27.8 21.8 83 2.1 ESE 9 11 5 6 1011.2 1010.9 0.0
 
Date/Time
EDT
Temp
°C
App
Temp
°C
Dew
Point
°C
Rel
Hum
%
Delta-T
°C
Wind Press
QNH
hPa
Press
MSL
hPa
Rain since
9am
mm
Dir  Spd
km/h
Gust
km/h
Spd
kts
Gust
kts
25/11:30pm 25.2 28.3 22.1 83 2.1 SE 9 13 5 7 1011.2 1010.9 0.0
25/11:00pm 25.4 30.1 21.9 81 2.3 CALM 0 0 0 0 1011.4 1011.1 0.0
25/10:30pm 25.9 30.2 22.0 79 2.6 NNW 2 9 1 5 1011.3 1011.0 0.0
25/10:00pm 25.8 28.8 21.9 79 2.6 SSW 9 11 5 6 1011.4 1011.1 0.0
25/09:30pm 25.8 28.8 21.9 79 2.6 SSW 9 13 5 7 1011.5 1011.2 0.0
25/09:00pm 26.1 29.1 22.0 78 2.8 SSW 9 13 5 7 1011.6 1011.3 0.0
25/08:30pm 26.1 28.6 21.7 77 2.9 SSE 11 15 6 8 1011.3 1011.0 0.0
25/08:00pm 26.7 29.3 21.9 75 3.2 SSE 11 15 6 8 1011.2 1010.9 0.0
25/07:30pm 27.1 29.3 21.8 73 3.6 ESE 13 19 7 10 1010.9 1010.6 0.0
25/07:00pm 27.7 28.7 21.7 70 4.0 SE 19 24 10 13 1010.3 1010.0 0.0
25/06:30pm 28.3 29.1 21.8 68 4.4 ESE 20 30 11 16 1010.1 1009.8 0.0
25/06:00pm 29.6 30.6 21.8 63 5.3 ESE 19 26 10 14 1009.9 1009.6 0.0
25/05:30pm 30.4 31.3 21.5 59 6.0 SE 19 24 10 13 1009.7 1009.4 0.0
25/05:00pm 31.1 33.2 22.4 60 5.9 SE 15 22 8 12 1009.7 1009.4 0.0
25/04:30pm 31.1 32.7 22.1 58 6.1 SE 17 24 9 13 1010.1 1009.8 0.0
25/04:00pm 30.2 31.5 22.4 63 5.3 SE 19 26 10 14 1010.4 1010.1 0.0
25/03:30pm 31.5 33.1 22.2 57 6.3 SE 17 24 9 13 1010.6 1010.3 0.0
25/03:00pm 30.3 32.4 21.7 60 5.8 SSE 13 19 7 10 1011.0 1010.7 0.0
25/02:30pm 29.5 31.3 21.2 61 5.6 ESE 13 20 7 11 1011.5 1011.2 0.0
25/02:00pm 29.2 31.0 21.2 62 5.4 SE 13 20 7 11 1012.0 1011.7 0.0
25/01:30pm 28.4 31.1 21.4 66 4.7 ESE 9 15 5 8 1012.5 1012.2 0.0
25/01:00pm 28.3 31.0 22.1 69 4.2 ESE 11 19 6 10 1012.9 1012.6 0.0
25/12:30pm 26.9 29.2 21.4 72 3.7 SE 11 15 6 8 1013.5 1013.2 0.0
25/12:00pm 26.5 28.6 21.7 75 3.2 SE 13 17 7 9 1013.8 1013.5 0.0
25/11:30am 26.5 29.3 21.5 74 3.3 SSE 9 13 5 7 1013.8 1013.5 0.0
25/11:00am 25.9 28.1 21.1 75 3.2 SSE 11 17 6 9 1014.0 1013.7 0.0
25/10:30am 24.4 26.3 21.3 83 2.0 SE 13 17 7 9 1014.3 1014.0 0.0
25/10:00am 24.6 26.4 21.1 81 2.3 SSE 13 17 7 9 1014.2 1013.9 0.0
25/09:30am 24.2 26.6 21.5 85 1.8 SSE 11 15 6 8 1014.1 1013.8 0.0
25/09:00am 23.8 26.0 21.1 85 1.8 SSE 11 19 6 10 1014.1 1013.8 4.2
25/08:30am 23.5 25.2 21.0 86 1.6 SE 13 20 7 11 1013.9 1013.6 4.2
25/08:00am 24.0 25.6 20.7 82 2.2 SSE 13 17 7 9 1013.6 1013.3 4.2
25/07:30am 24.1 25.7 20.8 82 2.2 SSE 13 17 7 9 1013.2 1012.9 4.2
25/07:00am 24.1 26.6 21.0 83 2.0 SE 9 15 5 8 1012.9 1012.6 4.2
25/06:30am 24.0 26.4 20.9 83 2.0 SSE 9 15 5 8 1012.6 1012.3 4.2
25/06:00am 24.0 26.4 20.9 83 2.0 SSE 9 13 5 7 1012.4 1012.1 4.2
25/05:30am 24.0 26.7 20.7 82 2.2 SSE 7 11 4 6 1012.1 1011.8 4.2
25/05:00am 24.0 26.3 20.7 82 2.2 SE 9 13 5 7 1011.8 1011.5 4.2
25/04:30am 24.0 26.6 20.5 81 2.3 SSE 7 11 4 6 1011.9 1011.6 4.2
25/04:00am 24.1 26.9 20.4 80 2.4 SE 6 7 3 4 1011.8 1011.5 4.2
25/03:30am 24.2 27.8 20.5 80 2.4 ESE 2 7 1 4 1011.7 1011.4 4.2
25/03:00am 24.0 26.7 20.3 80 2.4 S 6 9 3 5 1011.7 1011.4 4.2
25/02:30am 24.2 26.4 20.5 80 2.4 S 9 11 5 6 1011.8 1011.5 4.2
25/02:00am 24.3 26.5 20.4 79 2.5 SSE 9 13 5 7 1012.1 1011.8 4.2
25/01:30am 24.4 25.9 20.5 79 2.5 SE 13 19 7 10 1012.4 1012.1 4.2
25/01:00am 24.4 26.3 20.5 79 2.5 SSE 11 15 6 8 1012.7 1012.4 4.2
25/12:30am 24.4 26.2 20.3 78 2.7 SSE 11 15 6 8 1012.7 1012.4 4.2
25/12:00am 24.4 26.0 20.7 80 2.4 SSE 13 17 7 9 1012.7 1012.4 4.2
 
Date/Time
EDT
Temp
°C
App
Temp
°C
Dew
Point
°C
Rel
Hum
%
Delta-T
°C
Wind Press
QNH
hPa
Press
MSL
hPa
Rain since
9am
mm
Dir  Spd
km/h
Gust
km/h
Spd
kts
Gust
kts
24/11:30pm 24.4 26.4 20.7 80 2.4 SSE 11 15 6 8 1012.8 1012.5 4.2
24/11:00pm 24.3 27.1 20.8 81 2.3 SE 7 9 4 5 1012.6 1012.3 4.2
24/10:30pm 24.4 26.8 20.9 81 2.3 SE 9 11 5 6 1012.3 1012.0 4.2
24/10:00pm 24.4 26.7 20.7 80 2.4 ESE 9 11 5 6 1012.2 1011.9 4.2
24/09:30pm 24.6 26.4 20.3 77 2.8 SE 11 13 6 7 1011.8 1011.5 4.2
24/09:00pm 24.9 27.0 20.2 75 3.1 SSE 9 13 5 7 1011.3 1011.0 4.2
24/08:30pm 25.2 26.8 20.0 73 3.4 ESE 11 15 6 8 1010.8 1010.5 4.2
24/08:00pm 25.3 27.5 20.3 74 3.3 E 9 13 5 7 1010.1 1009.8 4.2
24/07:30pm 25.8 26.1 20.4 72 3.5 E 19 26 10 14 1009.9 1009.6 4.2
24/07:00pm 26.2 26.2 20.1 69 4.0 E 20 28 11 15 1009.3 1009.0 4.2
24/06:30pm 27.5 27.8 20.3 65 4.7 E 19 32 10 17 1008.7 1008.4 4.2
24/06:00pm 28.3 29.7 20.3 62 5.3 E 13 19 7 10 1008.4 1008.1 4.2
24/05:30pm 28.3 28.2 18.7 56 6.2 E 17 24 9 13 1008.4 1008.1 4.2
24/05:00pm 28.3 28.8 20.1 61 5.4 E 17 20 9 11 1007.8 1007.5 4.2
24/04:30pm 27.7 28.2 19.2 60 5.5 ESE 15 22 8 12 1008.3 1008.0 4.2
24/04:00pm 27.3 27.5 20.1 64 4.7 ESE 19 26 10 14 1008.6 1008.3 4.2
24/03:30pm 25.9 26.3 19.8 69 4.0 ESE 17 24 9 13 1009.0 1008.7 4.2
24/03:00pm 24.1 25.6 21.2 84 1.9 SE 15 24 8 13 1008.6 1008.3 3.6
24/02:30pm 25.7 25.2 19.1 67 4.2 SE 20 28 11 15 1009.0 1008.7 0.8

Other formats

Comma delimited format used in spreadsheet applications
http://www.bom.gov.au/fwo/IDN60801/IDN60801.95771.axf

JavaScript Object Notation format (JSON) in row-major order
http://www.bom.gov.au/fwo/IDN60801/IDN60801.95771.json

Data quality

Most of these data are generated automatically and are frequently updated. Quality checks on data are not normally performed. It is possible for incorrect values to appear. Refer to information at About Latest Weather Observations and please check the disclaimer before using these data.